sensor_id;sensor_type;location;lat;lon;timestamp;pressure;altitude;pressure_sealevel;temperature;humidity
31096;BME280;17749;51.962;8.560;2023-05-08T05:00:27;100597.69;;;9.73;100.00
31096;BME280;17749;51.962;8.560;2023-05-08T05:02:54;100602.81;;;9.79;100.00
31096;BME280;17749;51.962;8.560;2023-05-08T05:05:21;100602.72;;;9.82;100.00
31096;BME280;17749;51.962;8.560;2023-05-08T05:07:49;100613.22;;;9.88;100.00
31096;BME280;17749;51.962;8.560;2023-05-08T05:10:18;100613.03;;;9.94;100.00
31096;BME280;17749;51.962;8.560;2023-05-08T05:12:45;100619.09;;;9.99;100.00
31096;BME280;17749;51.962;8.560;2023-05-08T05:15:12;100625.88;;;10.09;100.00
31096;BME280;17749;51.962;8.560;2023-05-08T05:17:40;100615.09;;;10.14;100.00
31096;BME280;17749;51.962;8.560;2023-05-08T05:20:08;100614.91;;;10.20;100.00
31096;BME280;17749;51.962;8.560;2023-05-08T05:22:36;100618.19;;;10.30;100.00
31096;BME280;17749;51.962;8.560;2023-05-08T05:28:58;100622.22;;;10.43;100.00
31096;BME280;17749;51.962;8.560;2023-05-08T05:31:27;100621.25;;;10.46;100.00
31096;BME280;17749;51.962;8.560;2023-05-08T05:34:03;100615.88;;;10.47;100.00
31096;BME280;17749;51.962;8.560;2023-05-08T05:36:54;100624.53;;;10.54;100.00
31096;BME280;17749;51.962;8.560;2023-05-08T05:39:22;100624.41;;;10.59;100.00
31096;BME280;17749;51.962;8.560;2023-05-08T05:41:49;100626.00;;;10.64;100.00
31096;BME280;17749;51.962;8.560;2023-05-08T05:44:32;100619.53;;;10.71;100.00
31096;BME280;17749;51.962;8.560;2023-05-08T05:47:03;100626.38;;;10.80;100.00
31096;BME280;17749;51.962;8.560;2023-05-08T05:49:41;100630.59;;;10.87;100.00
31096;BME280;17749;51.962;8.560;2023-05-08T05:52:15;100635.63;;;10.95;100.00
31096;BME280;17749;51.962;8.560;2023-05-08T05:54:42;100636.78;;;11.14;100.00
31096;BME280;17749;51.962;8.560;2023-05-08T05:57:10;100638.09;;;11.28;100.00
31096;BME280;17749;51.962;8.560;2023-05-08T05:59:39;100636.47;;;11.49;100.00
31096;BME280;17749;51.962;8.560;2023-05-08T06:02:07;100639.44;;;11.66;100.00
31096;BME280;17749;51.962;8.560;2023-05-08T06:04:36;100636.00;;;11.88;100.00
31096;BME280;17749;51.962;8.560;2023-05-08T06:07:05;100636.75;;;12.15;100.00
31096;BME280;17749;51.962;8.560;2023-05-08T06:09:32;100638.88;;;12.28;100.00
31096;BME280;17749;51.962;8.560;2023-05-08T06:11:59;100638.06;;;12.50;100.00
31096;BME280;17749;51.962;8.560;2023-05-08T06:14:26;100635.25;;;12.75;100.00
31096;BME280;17749;51.962;8.560;2023-05-08T06:16:53;100638.31;;;13.10;100.00
31096;BME280;17749;51.962;8.560;2023-05-08T06:19:20;100639.75;;;13.39;100.00
31096;BME280;17749;51.962;8.560;2023-05-08T06:21:50;100642.88;;;13.69;100.00
31096;BME280;17749;51.962;8.560;2023-05-08T06:24:17;100649.59;;;13.98;100.00
31096;BME280;17749;51.962;8.560;2023-05-08T06:26:44;100638.28;;;14.31;100.00
31096;BME280;17749;51.962;8.560;2023-05-08T06:29:12;100646.38;;;14.48;100.00
31096;BME280;17749;51.962;8.560;2023-05-08T06:31:39;100647.91;;;14.73;100.00
31096;BME280;17749;51.962;8.560;2023-05-08T06:34:06;100638.34;;;14.86;100.00
31096;BME280;17749;51.962;8.560;2023-05-08T06:36:33;100644.13;;;14.96;100.00
31096;BME280;17749;51.962;8.560;2023-05-08T06:39:03;100639.22;;;15.04;100.00
31096;BME280;17749;51.962;8.560;2023-05-08T06:41:56;100637.28;;;15.25;100.00
31096;BME280;17749;51.962;8.560;2023-05-08T06:44:43;100639.88;;;15.44;100.00
31096;BME280;17749;51.962;8.560;2023-05-08T06:47:10;100638.63;;;15.51;100.00
31096;BME280;17749;51.962;8.560;2023-05-08T06:49:41;100646.16;;;15.61;100.00
31096;BME280;17749;51.962;8.560;2023-05-08T06:52:13;100651.00;;;15.71;100.00
31096;BME280;17749;51.962;8.560;2023-05-08T06:54:48;100648.72;;;15.81;100.00
31096;BME280;17749;51.962;8.560;2023-05-08T06:57:18;100655.66;;;15.85;100.00
31096;BME280;17749;51.962;8.560;2023-05-08T07:00:06;100646.59;;;15.88;100.00
31096;BME280;17749;51.962;8.560;2023-05-08T07:02:39;100635.25;;;15.98;100.00
31096;BME280;17749;51.962;8.560;2023-05-08T07:05:14;100643.94;;;16.04;100.00
31096;BME280;17749;51.962;8.560;2023-05-08T07:07:50;100643.22;;;16.00;100.00
31096;BME280;17749;51.962;8.560;2023-05-08T07:10:24;100642.63;;;16.11;100.00
31096;BME280;17749;51.962;8.560;2023-05-08T07:13:01;100640.50;;;16.17;100.00
31096;BME280;17749;51.962;8.560;2023-05-08T07:16:11;100646.91;;;16.31;100.00
31096;BME280;17749;51.962;8.560;2023-05-08T07:24:02;100642.25;;;16.50;100.00
31096;BME280;17749;51.962;8.560;2023-05-08T07:48:50;100629.63;;;18.03;100.00
31096;BME280;17749;51.962;8.560;2023-05-08T07:56:20;100615.84;;;18.22;100.00
31096;BME280;17749;51.962;8.560;2023-05-08T07:59:11;100610.25;;;18.25;100.00
31096;BME280;17749;51.962;8.560;2023-05-08T08:02:37;100615.66;;;18.25;100.00
31096;BME280;17749;51.962;8.560;2023-05-08T08:09:36;100599.88;;;18.75;100.00
31096;BME280;17749;51.962;8.560;2023-05-08T08:12:10;100606.09;;;18.90;100.00
31096;BME280;17749;51.962;8.560;2023-05-08T08:15:36;100603.28;;;19.31;100.00
31096;BME280;17749;51.962;8.560;2023-05-08T08:19:32;100604.00;;;19.86;100.00
31096;BME280;17749;51.962;8.560;2023-05-08T08:23:07;100593.00;;;20.39;100.00
31096;BME280;17749;51.962;8.560;2023-05-08T08:25:34;100588.91;;;20.70;100.00
31096;BME280;17749;51.962;8.560;2023-05-08T08:28:01;100591.22;;;20.98;100.00
31096;BME280;17749;51.962;8.560;2023-05-08T08:30:28;100597.59;;;21.21;98.94
31096;BME280;17749;51.962;8.560;2023-05-08T08:32:55;100584.13;;;21.33;100.00
31096;BME280;17749;51.962;8.560;2023-05-08T08:35:22;100584.94;;;21.57;100.00
31096;BME280;17749;51.962;8.560;2023-05-08T08:37:55;100582.88;;;21.72;100.00
31096;BME280;17749;51.962;8.560;2023-05-08T08:40:22;100589.16;;;21.84;97.88
31096;BME280;17749;51.962;8.560;2023-05-08T08:42:49;100583.13;;;21.92;97.49
31096;BME280;17749;51.962;8.560;2023-05-08T08:45:16;100587.44;;;21.83;96.22
31096;BME280;17749;51.962;8.560;2023-05-08T08:47:44;100586.44;;;21.95;97.53
31096;BME280;17749;51.962;8.560;2023-05-08T08:50:13;100575.97;;;22.02;94.58
31096;BME280;17749;51.962;8.560;2023-05-08T08:52:53;100584.50;;;22.20;96.86
31096;BME280;17749;51.962;8.560;2023-05-08T08:55:21;100586.09;;;22.34;96.89
31096;BME280;17749;51.962;8.560;2023-05-08T09:00:59;100585.69;;;22.93;93.26
31096;BME280;17749;51.962;8.560;2023-05-08T09:03:26;100579.06;;;23.18;90.20
31096;BME280;17749;51.962;8.560;2023-05-08T09:05:54;100581.56;;;23.31;90.25
31096;BME280;17749;51.962;8.560;2023-05-08T09:08:21;100592.91;;;23.36;89.39
31096;BME280;17749;51.962;8.560;2023-05-08T09:10:48;100593.97;;;23.66;88.20
31096;BME280;17749;51.962;8.560;2023-05-08T09:13:15;100589.25;;;23.68;86.45
31096;BME280;17749;51.962;8.560;2023-05-08T09:15:45;100601.13;;;23.88;88.00
31096;BME280;17749;51.962;8.560;2023-05-08T09:18:12;100596.38;;;24.11;87.04
31096;BME280;17749;51.962;8.560;2023-05-08T09:20:39;100595.38;;;24.12;84.44
31096;BME280;17749;51.962;8.560;2023-05-08T09:23:07;100595.78;;;24.07;83.72
31096;BME280;17749;51.962;8.560;2023-05-08T09:25:44;100593.47;;;24.02;84.55
31096;BME280;17749;51.962;8.560;2023-05-08T09:28:25;100586.41;;;24.21;87.22
31096;BME280;17749;51.962;8.560;2023-05-08T09:30:55;100588.25;;;24.70;85.79
31096;BME280;17749;51.962;8.560;2023-05-08T09:33:27;100587.97;;;24.64;82.03
31096;BME280;17749;51.962;8.560;2023-05-08T09:35:55;100588.56;;;24.77;83.55
31096;BME280;17749;51.962;8.560;2023-05-08T09:38:37;100582.13;;;24.98;85.04
31096;BME280;17749;51.962;8.560;2023-05-08T09:41:12;100586.03;;;25.24;83.25
31096;BME280;17749;51.962;8.560;2023-05-08T09:43:44;100582.53;;;25.51;83.28
31096;BME280;17749;51.962;8.560;2023-05-08T09:46:25;100586.44;;;25.96;82.45
31096;BME280;17749;51.962;8.560;2023-05-08T09:48:57;100583.16;;;26.02;79.43
31096;BME280;17749;51.962;8.560;2023-05-08T09:51:26;100581.50;;;26.09;82.12
31096;BME280;17749;51.962;8.560;2023-05-08T09:53:56;100584.97;;;26.11;80.10
31096;BME280;17749;51.962;8.560;2023-05-08T09:56:34;100583.59;;;25.97;79.66
31096;BME280;17749;51.962;8.560;2023-05-08T09:59:02;100581.38;;;25.54;78.24
31096;BME280;17749;51.962;8.560;2023-05-08T10:01:31;100585.13;;;25.33;78.70
31096;BME280;17749;51.962;8.560;2023-05-08T10:03:59;100584.38;;;25.61;81.21
31096;BME280;17749;51.962;8.560;2023-05-08T10:06:27;100588.59;;;26.02;78.37
31096;BME280;17749;51.962;8.560;2023-05-08T10:09:10;100587.63;;;26.58;78.05
31096;BME280;17749;51.962;8.560;2023-05-08T10:11:39;100583.75;;;26.79;78.26
31096;BME280;17749;51.962;8.560;2023-05-08T10:14:07;100590.22;;;26.96;76.33
31096;BME280;17749;51.962;8.560;2023-05-08T10:16:41;100586.22;;;26.90;76.29
31096;BME280;17749;51.962;8.560;2023-05-08T10:19:12;100577.31;;;26.88;76.73
31096;BME280;17749;51.962;8.560;2023-05-08T10:21:42;100574.69;;;26.96;76.37
31096;BME280;17749;51.962;8.560;2023-05-08T10:24:26;100574.38;;;26.99;74.84
31096;BME280;17749;51.962;8.560;2023-05-08T10:27:16;100574.91;;;27.03;73.98
31096;BME280;17749;51.962;8.560;2023-05-08T10:29:51;100578.09;;;26.98;74.56
31096;BME280;17749;51.962;8.560;2023-05-08T10:32:20;100576.41;;;26.97;74.07
31096;BME280;17749;51.962;8.560;2023-05-08T10:34:50;100577.56;;;26.77;75.03
31096;BME280;17749;51.962;8.560;2023-05-08T10:37:18;100579.28;;;26.60;76.34
31096;BME280;17749;51.962;8.560;2023-05-08T10:39:47;100575.31;;;26.44;76.21
31096;BME280;17749;51.962;8.560;2023-05-08T10:42:15;100568.56;;;26.66;76.28
31096;BME280;17749;51.962;8.560;2023-05-08T10:44:42;100564.38;;;26.90;73.35
31096;BME280;17749;51.962;8.560;2023-05-08T10:47:21;100558.91;;;27.08;75.60
31096;BME280;17749;51.962;8.560;2023-05-08T10:52:58;100568.97;;;27.69;74.95
31096;BME280;17749;51.962;8.560;2023-05-08T10:55:31;100570.91;;;27.51;74.73
31096;BME280;17749;51.962;8.560;2023-05-08T10:58:05;100563.75;;;27.32;73.07
31096;BME280;17749;51.962;8.560;2023-05-08T11:03:26;100560.31;;;26.94;74.83
31096;BME280;17749;51.962;8.560;2023-05-08T11:05:59;100555.78;;;26.85;73.37
31096;BME280;17749;51.962;8.560;2023-05-08T11:08:29;100554.53;;;26.79;74.54
31096;BME280;17749;51.962;8.560;2023-05-08T11:19:24;100553.00;;;27.57;73.00
31096;BME280;17749;51.962;8.560;2023-05-08T11:30:37;100556.16;;;26.27;76.36
31096;BME280;17749;51.962;8.560;2023-05-08T11:35:59;100554.63;;;25.87;76.70
31096;BME280;17749;51.962;8.560;2023-05-08T11:38:33;100551.06;;;25.67;78.45
31096;BME280;17749;51.962;8.560;2023-05-08T11:46:13;100555.84;;;25.55;79.47
31096;BME280;17749;51.962;8.560;2023-05-08T11:48:40;100556.28;;;25.41;78.98
31096;BME280;17749;51.962;8.560;2023-05-08T11:51:08;100552.72;;;25.30;79.46
31096;BME280;17749;51.962;8.560;2023-05-08T11:53:36;100544.41;;;25.03;80.95
31096;BME280;17749;51.962;8.560;2023-05-08T11:56:04;100544.13;;;24.67;82.44
31096;BME280;17749;51.962;8.560;2023-05-08T11:58:31;100545.13;;;24.66;82.47
31096;BME280;17749;51.962;8.560;2023-05-08T12:00:59;100543.63;;;24.42;82.62
31096;BME280;17749;51.962;8.560;2023-05-08T12:03:26;100553.56;;;24.13;84.28
31096;BME280;17749;51.962;8.560;2023-05-08T12:05:57;100558.88;;;24.14;85.28
31096;BME280;17749;51.962;8.560;2023-05-08T12:08:25;100555.28;;;24.14;85.91
31096;BME280;17749;51.962;8.560;2023-05-08T12:10:54;100557.72;;;24.17;86.89
31096;BME280;17749;51.962;8.560;2023-05-08T12:13:26;100551.16;;;24.19;87.54
31096;BME280;17749;51.962;8.560;2023-05-08T12:15:55;100557.44;;;24.20;85.89
31096;BME280;17749;51.962;8.560;2023-05-08T12:18:23;100546.28;;;24.23;86.67
31096;BME280;17749;51.962;8.560;2023-05-08T12:20:52;100549.56;;;24.17;86.39
31096;BME280;17749;51.962;8.560;2023-05-08T12:23:19;100540.22;;;24.10;86.86
31096;BME280;17749;51.962;8.560;2023-05-08T12:25:46;100543.41;;;24.15;88.03
31096;BME280;17749;51.962;8.560;2023-05-08T12:28:14;100551.63;;;24.34;87.83
31096;BME280;17749;51.962;8.560;2023-05-08T12:30:41;100540.75;;;24.34;86.81
31096;BME280;17749;51.962;8.560;2023-05-08T12:33:08;100532.41;;;24.26;87.08
31096;BME280;17749;51.962;8.560;2023-05-08T12:35:38;100529.66;;;24.16;86.99
31096;BME280;17749;51.962;8.560;2023-05-08T12:38:07;100536.78;;;24.08;87.92
31096;BME280;17749;51.962;8.560;2023-05-08T12:40:39;100532.19;;;23.98;89.43
31096;BME280;17749;51.962;8.560;2023-05-08T12:43:06;100533.03;;;23.99;89.05
31096;BME280;17749;51.962;8.560;2023-05-08T12:45:36;100534.84;;;23.89;89.18
31096;BME280;17749;51.962;8.560;2023-05-08T12:48:06;100530.72;;;23.94;89.64
31096;BME280;17749;51.962;8.560;2023-05-08T12:50:35;100523.56;;;23.93;89.33
31096;BME280;17749;51.962;8.560;2023-05-08T12:53:04;100529.59;;;23.97;89.45
31096;BME280;17749;51.962;8.560;2023-05-08T12:55:33;100525.59;;;24.01;87.88
31096;BME280;17749;51.962;8.560;2023-05-08T12:58:05;100526.97;;;23.86;88.68
31096;BME280;17749;51.962;8.560;2023-05-08T13:00:38;100519.50;;;23.78;89.89
31096;BME280;17749;51.962;8.560;2023-05-08T13:03:07;100523.25;;;23.66;89.13
31096;BME280;17749;51.962;8.560;2023-05-08T13:05:36;100523.38;;;23.54;91.41
31096;BME280;17749;51.962;8.560;2023-05-08T13:08:05;100529.53;;;23.56;91.85
31096;BME280;17749;51.962;8.560;2023-05-08T13:10:55;100518.19;;;23.51;91.81
31096;BME280;17749;51.962;8.560;2023-05-08T13:13:24;100516.50;;;23.50;90.62
31096;BME280;17749;51.962;8.560;2023-05-08T13:15:53;100519.59;;;23.46;92.46
31096;BME280;17749;51.962;8.560;2023-05-08T13:18:23;100521.88;;;23.40;95.16
31096;BME280;17749;51.962;8.560;2023-05-08T13:20:50;100518.41;;;23.38;94.30
31096;BME280;17749;51.962;8.560;2023-05-08T13:23:17;100512.66;;;23.32;93.65
31096;BME280;17749;51.962;8.560;2023-05-08T13:25:44;100514.00;;;23.16;93.56
31096;BME280;17749;51.962;8.560;2023-05-08T13:28:11;100517.41;;;23.18;94.93
31096;BME280;17749;51.962;8.560;2023-05-08T13:30:38;100519.56;;;23.15;95.20
31096;BME280;17749;51.962;8.560;2023-05-08T13:33:05;100515.50;;;23.09;96.11
31096;BME280;17749;51.962;8.560;2023-05-08T13:35:32;100522.47;;;23.02;96.28
31096;BME280;17749;51.962;8.560;2023-05-08T13:38:00;100514.06;;;22.94;97.13
31096;BME280;17749;51.962;8.560;2023-05-08T13:40:27;100510.47;;;23.05;98.53
31096;BME280;17749;51.962;8.560;2023-05-08T13:42:54;100505.88;;;23.05;93.06
31096;BME280;17749;51.962;8.560;2023-05-08T13:45:21;100510.16;;;22.98;98.53
31096;BME280;17749;51.962;8.560;2023-05-08T13:47:48;100506.44;;;22.99;98.34
31096;BME280;17749;51.962;8.560;2023-05-08T13:50:17;100507.63;;;22.95;97.78
31096;BME280;17749;51.962;8.560;2023-05-08T13:52:45;100511.75;;;23.01;97.39
31096;BME280;17749;51.962;8.560;2023-05-08T13:55:12;100504.44;;;23.01;97.13
31096;BME280;17749;51.962;8.560;2023-05-08T13:57:40;100509.25;;;22.97;99.42
31096;BME280;17749;51.962;8.560;2023-05-08T14:00:07;100499.44;;;22.85;94.82
31096;BME280;17749;51.962;8.560;2023-05-08T14:02:35;100495.91;;;22.73;96.66
31096;BME280;17749;51.962;8.560;2023-05-08T14:05:08;100496.44;;;22.67;97.53
31096;BME280;17749;51.962;8.560;2023-05-08T14:07:35;100500.38;;;22.63;95.33
31096;BME280;17749;51.962;8.560;2023-05-08T14:10:03;100495.75;;;22.54;97.69
31096;BME280;17749;51.962;8.560;2023-05-08T14:12:30;100497.13;;;22.48;96.81
31096;BME280;17749;51.962;8.560;2023-05-08T14:15:05;100486.91;;;22.41;99.98
31096;BME280;17749;51.962;8.560;2023-05-08T14:17:32;100489.38;;;22.44;99.20
31096;BME280;17749;51.962;8.560;2023-05-08T14:19:59;100492.84;;;22.35;100.00
31096;BME280;17749;51.962;8.560;2023-05-08T14:22:26;100487.06;;;22.28;100.00
31096;BME280;17749;51.962;8.560;2023-05-08T14:24:53;100495.59;;;22.23;100.00
31096;BME280;17749;51.962;8.560;2023-05-08T14:27:20;100497.84;;;21.62;100.00
31096;BME280;17749;51.962;8.560;2023-05-08T14:29:47;100503.47;;;21.25;100.00
31096;BME280;17749;51.962;8.560;2023-05-08T14:32:14;100505.69;;;20.61;100.00
31096;BME280;17749;51.962;8.560;2023-05-08T14:34:42;100507.84;;;20.07;100.00
31096;BME280;17749;51.962;8.560;2023-05-08T14:37:09;100510.91;;;19.90;100.00
31096;BME280;17749;51.962;8.560;2023-05-08T14:39:37;100507.00;;;19.94;100.00
31096;BME280;17749;51.962;8.560;2023-05-08T14:42:06;100507.66;;;19.98;100.00
31096;BME280;17749;51.962;8.560;2023-05-08T14:44:37;100503.06;;;20.11;100.00
31096;BME280;17749;51.962;8.560;2023-05-08T14:47:06;100505.81;;;20.22;100.00
31096;BME280;17749;51.962;8.560;2023-05-08T14:49:37;100515.78;;;20.22;100.00
31096;BME280;17749;51.962;8.560;2023-05-08T14:52:05;100505.97;;;20.21;100.00
31096;BME280;17749;51.962;8.560;2023-05-08T14:54:33;100521.19;;;20.22;100.00
31096;BME280;17749;51.962;8.560;2023-05-08T14:57:02;100518.63;;;20.20;100.00
31096;BME280;17749;51.962;8.560;2023-05-08T14:59:34;100514.50;;;20.14;100.00
31096;BME280;17749;51.962;8.560;2023-05-08T15:02:03;100512.56;;;20.17;100.00
31096;BME280;17749;51.962;8.560;2023-05-08T15:04:30;100509.09;;;20.14;100.00
31096;BME280;17749;51.962;8.560;2023-05-08T15:06:57;100511.28;;;20.09;100.00
31096;BME280;17749;51.962;8.560;2023-05-08T15:09:25;100505.66;;;20.12;100.00
31096;BME280;17749;51.962;8.560;2023-05-08T15:11:55;100505.66;;;20.12;100.00
31096;BME280;17749;51.962;8.560;2023-05-08T15:14:22;100524.69;;;20.11;100.00
31096;BME280;17749;51.962;8.560;2023-05-08T15:16:50;100514.09;;;20.08;100.00
31096;BME280;17749;51.962;8.560;2023-05-08T15:19:18;100526.56;;;19.98;100.00
31096;BME280;17749;51.962;8.560;2023-05-08T15:21:45;100530.59;;;19.79;100.00
31096;BME280;17749;51.962;8.560;2023-05-08T15:24:12;100537.91;;;19.64;100.00
31096;BME280;17749;51.962;8.560;2023-05-08T15:26:39;100534.81;;;19.45;100.00
31096;BME280;17749;51.962;8.560;2023-05-08T15:29:07;100530.56;;;19.28;100.00
31096;BME280;17749;51.962;8.560;2023-05-08T15:31:34;100529.94;;;19.24;100.00
31096;BME280;17749;51.962;8.560;2023-05-08T15:34:02;100533.19;;;19.30;100.00
31096;BME280;17749;51.962;8.560;2023-05-08T15:36:30;100522.59;;;19.26;100.00
31096;BME280;17749;51.962;8.560;2023-05-08T15:38:59;100532.31;;;19.29;100.00
31096;BME280;17749;51.962;8.560;2023-05-08T15:41:26;100531.25;;;19.32;100.00
31096;BME280;17749;51.962;8.560;2023-05-08T15:43:54;100520.66;;;19.29;100.00
31096;BME280;17749;51.962;8.560;2023-05-08T15:46:21;100519.97;;;19.25;100.00
31096;BME280;17749;51.962;8.560;2023-05-08T15:48:49;100521.06;;;19.22;100.00
31096;BME280;17749;51.962;8.560;2023-05-08T15:51:16;100517.09;;;19.15;100.00
31096;BME280;17749;51.962;8.560;2023-05-08T15:53:43;100524.50;;;19.12;100.00
31096;BME280;17749;51.962;8.560;2023-05-08T15:56:11;100516.53;;;19.10;100.00
31096;BME280;17749;51.962;8.560;2023-05-08T15:58:38;100518.47;;;19.08;100.00
31096;BME280;17749;51.962;8.560;2023-05-08T16:01:06;100520.84;;;19.00;100.00
31096;BME280;17749;51.962;8.560;2023-05-08T16:03:34;100522.13;;;18.94;100.00
31096;BME280;17749;51.962;8.560;2023-05-08T16:06:01;100520.34;;;18.80;100.00
31096;BME280;17749;51.962;8.560;2023-05-08T16:08:30;100529.00;;;18.86;100.00
31096;BME280;17749;51.962;8.560;2023-05-08T16:10:58;100523.81;;;18.82;100.00
31096;BME280;17749;51.962;8.560;2023-05-08T16:13:26;100529.22;;;18.82;100.00
31096;BME280;17749;51.962;8.560;2023-05-08T16:15:54;100536.31;;;18.83;100.00
31096;BME280;17749;51.962;8.560;2023-05-08T16:18:21;100532.75;;;18.83;100.00
31096;BME280;17749;51.962;8.560;2023-05-08T16:20:54;100525.97;;;18.77;100.00
31096;BME280;17749;51.962;8.560;2023-05-08T16:23:21;100531.34;;;18.77;100.00
31096;BME280;17749;51.962;8.560;2023-05-08T16:25:48;100521.72;;;18.73;100.00
31096;BME280;17749;51.962;8.560;2023-05-08T16:28:16;100514.69;;;18.71;100.00
31096;BME280;17749;51.962;8.560;2023-05-08T16:30:43;100512.50;;;18.63;100.00
31096;BME280;17749;51.962;8.560;2023-05-08T16:33:10;100503.09;;;18.56;100.00
31096;BME280;17749;51.962;8.560;2023-05-08T16:35:39;100493.28;;;18.55;100.00
31096;BME280;17749;51.962;8.560;2023-05-08T16:38:07;100492.81;;;18.48;100.00
31096;BME280;17749;51.962;8.560;2023-05-08T16:40:34;100490.44;;;18.44;100.00
31096;BME280;17749;51.962;8.560;2023-05-08T16:43:01;100501.34;;;18.42;100.00
31096;BME280;17749;51.962;8.560;2023-05-08T16:45:28;100493.75;;;18.34;100.00
31096;BME280;17749;51.962;8.560;2023-05-08T16:47:55;100495.75;;;18.31;100.00
31096;BME280;17749;51.962;8.560;2023-05-08T16:50:22;100492.22;;;18.30;100.00
31096;BME280;17749;51.962;8.560;2023-05-08T16:52:49;100488.66;;;18.30;100.00
31096;BME280;17749;51.962;8.560;2023-05-08T16:55:16;100481.56;;;18.29;100.00
31096;BME280;17749;51.962;8.560;2023-05-08T16:57:43;100481.56;;;18.29;100.00
31096;BME280;17749;51.962;8.560;2023-05-08T17:00:10;100481.63;;;18.27;100.00
31096;BME280;17749;51.962;8.560;2023-05-08T17:02:37;100476.66;;;18.21;100.00
31096;BME280;17749;51.962;8.560;2023-05-08T17:05:05;100475.88;;;18.19;100.00
31096;BME280;17749;51.962;8.560;2023-05-08T17:07:32;100469.63;;;18.18;100.00
31096;BME280;17749;51.962;8.560;2023-05-08T17:09:59;100468.56;;;18.21;100.00
31096;BME280;17749;51.962;8.560;2023-05-08T17:12:27;100468.97;;;18.15;100.00
31096;BME280;17749;51.962;8.560;2023-05-08T17:14:54;100467.88;;;18.17;100.00
31096;BME280;17749;51.962;8.560;2023-05-08T17:17:22;100461.63;;;18.17;100.00
31096;BME280;17749;51.962;8.560;2023-05-08T17:19:55;100468.75;;;18.18;100.00
31096;BME280;17749;51.962;8.560;2023-05-08T17:22:22;100474.13;;;18.18;100.00
31096;BME280;17749;51.962;8.560;2023-05-08T17:24:50;100463.34;;;18.18;100.00
31096;BME280;17749;51.962;8.560;2023-05-08T17:27:18;100468.75;;;18.18;100.00
31096;BME280;17749;51.962;8.560;2023-05-08T17:29:53;100471.44;;;18.18;100.00
31096;BME280;17749;51.962;8.560;2023-05-08T17:32:41;100466.25;;;18.15;100.00
31096;BME280;17749;51.962;8.560;2023-05-08T17:35:48;100483.84;;;18.21;100.00
31096;BME280;17749;51.962;8.560;2023-05-08T17:38:16;100474.13;;;18.18;100.00
31096;BME280;17749;51.962;8.560;2023-05-08T17:40:45;100476.97;;;18.16;100.00
31096;BME280;17749;51.962;8.560;2023-05-08T17:43:15;100476.09;;;18.16;100.00
31096;BME280;17749;51.962;8.560;2023-05-08T17:45:46;100467.44;;;18.11;100.00
31096;BME280;17749;51.962;8.560;2023-05-08T17:48:23;100473.91;;;18.08;100.00
31096;BME280;17749;51.962;8.560;2023-05-08T17:50:53;100480.34;;;18.06;100.00
31096;BME280;17749;51.962;8.560;2023-05-08T17:53:24;100480.66;;;18.01;100.00
31096;BME280;17749;51.962;8.560;2023-05-08T17:55:52;100487.00;;;18.00;100.00
31096;BME280;17749;51.962;8.560;2023-05-08T17:58:23;100482.69;;;17.98;100.00
31096;BME280;17749;51.962;8.560;2023-05-08T18:00:54;100486.34;;;17.96;100.00
31096;BME280;17749;51.962;8.560;2023-05-08T18:03:23;100485.69;;;17.93;100.00
31096;BME280;17749;51.962;8.560;2023-05-08T18:05:54;100486.53;;;17.93;100.00
31096;BME280;17749;51.962;8.560;2023-05-08T18:08:23;100489.53;;;17.89;100.00
31096;BME280;17749;51.962;8.560;2023-05-08T18:10:50;100499.84;;;17.82;100.00
31096;BME280;17749;51.962;8.560;2023-05-08T18:13:18;100495.69;;;17.77;100.00
31096;BME280;17749;51.962;8.560;2023-05-08T18:15:46;100502.78;;;17.78;100.00
31096;BME280;17749;51.962;8.560;2023-05-08T18:18:13;100492.88;;;17.78;100.00
31096;BME280;17749;51.962;8.560;2023-05-08T18:20:40;100493.28;;;17.72;100.00
31096;BME280;17749;51.962;8.560;2023-05-08T18:23:07;100490.00;;;17.67;100.00
31096;BME280;17749;51.962;8.560;2023-05-08T18:25:34;100489.22;;;17.65;100.00
31096;BME280;17749;51.962;8.560;2023-05-08T18:28:01;100493.84;;;17.63;100.00
31096;BME280;17749;51.962;8.560;2023-05-08T18:30:28;100490.41;;;17.61;100.00
31096;BME280;17749;51.962;8.560;2023-05-08T18:32:57;100495.09;;;17.57;100.00
31096;BME280;17749;51.962;8.560;2023-05-08T18:35:24;100491.94;;;17.50;100.00
31096;BME280;17749;51.962;8.560;2023-05-08T18:37:51;100495.00;;;17.44;100.00
31096;BME280;17749;51.962;8.560;2023-05-08T18:40:18;100493.38;;;17.42;100.00
31096;BME280;17749;51.962;8.560;2023-05-08T18:42:45;100510.88;;;17.35;100.00
31096;BME280;17749;51.962;8.560;2023-05-08T18:45:13;100487.50;;;17.21;100.00
31096;BME280;17749;51.962;8.560;2023-05-08T18:47:40;100496.81;;;17.15;100.00
31096;BME280;17749;51.962;8.560;2023-05-08T18:50:07;100493.44;;;17.12;100.00
31096;BME280;17749;51.962;8.560;2023-05-08T18:52:35;100485.00;;;17.03;100.00
31096;BME280;17749;51.962;8.560;2023-05-08T18:55:02;100496.09;;;16.97;100.00
31096;BME280;17749;51.962;8.560;2023-05-08T18:57:29;100486.00;;;16.86;100.00
31096;BME280;17749;51.962;8.560;2023-05-08T18:59:57;100484.72;;;16.78;100.00
31096;BME280;17749;51.962;8.560;2023-05-08T19:02:24;100485.06;;;16.72;100.00
31096;BME280;17749;51.962;8.560;2023-05-08T19:04:56;100483.50;;;16.68;100.00
31096;BME280;17749;51.962;8.560;2023-05-08T19:07:24;100480.81;;;16.68;100.00
31096;BME280;17749;51.962;8.560;2023-05-08T19:09:53;100489.84;;;16.67;100.00
31096;BME280;17749;51.962;8.560;2023-05-08T19:12:21;100497.16;;;16.64;100.00
31096;BME280;17749;51.962;8.560;2023-05-08T19:14:49;100494.63;;;16.61;100.00